createdAt,value
2023-04-04T00:00:36.314Z,87.72
2023-04-04T00:01:36.304Z,87.51
2023-04-04T00:02:36.393Z,87.20
2023-04-04T00:03:36.407Z,87.41
2023-04-04T00:04:36.369Z,87.20
2023-04-04T00:05:36.412Z,87.20
2023-04-04T00:06:36.239Z,87.41
2023-04-04T00:07:36.283Z,87.72
2023-04-04T00:08:36.233Z,88.35
2023-04-04T00:09:36.242Z,88.98
2023-04-04T00:10:36.225Z,88.77
2023-04-04T00:11:36.201Z,88.14
2023-04-04T00:12:36.189Z,87.83
2023-04-04T00:13:36.268Z,87.62
2023-04-04T00:14:36.176Z,87.41
2023-04-04T00:15:36.169Z,87.30
2023-04-04T00:16:36.202Z,87.30
2023-04-04T00:17:36.184Z,87.51
2023-04-04T00:18:36.132Z,87.41
2023-04-04T00:19:36.141Z,87.09
2023-04-04T00:20:36.111Z,87.93
2023-04-04T00:21:36.099Z,89.09
2023-04-04T00:22:36.101Z,89.29
2023-04-04T00:23:36.080Z,88.35
2023-04-04T00:24:36.078Z,87.72
2023-04-04T00:25:36.065Z,87.41
2023-04-04T00:26:36.039Z,87.51
2023-04-04T00:27:36.062Z,87.55
2023-04-04T00:28:36.032Z,87.24
2023-04-04T00:29:36.025Z,87.66
2023-04-04T00:30:36.008Z,87.76
2023-04-04T00:31:36.035Z,87.87
2023-04-04T00:32:36.016Z,87.97
2023-04-04T00:33:36.010Z,88.07
2023-04-04T00:34:35.963Z,87.87
2023-04-04T00:35:35.976Z,87.66
2023-04-04T00:36:35.949Z,87.66
2023-04-04T00:37:35.978Z,87.97
2023-04-04T00:38:35.934Z,88.12
2023-04-04T00:39:35.938Z,87.91
2023-04-04T00:40:35.914Z,87.70
2023-04-04T00:41:35.933Z,88.85
2023-04-04T00:42:35.872Z,88.43
2023-04-04T00:43:35.885Z,88.32
2023-04-04T00:44:35.884Z,88.22
2023-04-04T00:45:35.895Z,88.22
2023-04-04T00:46:35.903Z,88.43
2023-04-04T00:47:35.878Z,88.32
2023-04-04T00:48:35.851Z,88.75
2023-04-04T00:49:35.827Z,90.32
2023-04-04T00:50:35.815Z,90.59
2023-04-04T00:51:35.815Z,92.06
2023-04-04T00:52:35.847Z,90.23
2023-04-04T00:53:42.319Z,87.37
2023-04-04T00:54:35.979Z,85.80
2023-04-04T00:55:35.810Z,85.86
2023-04-04T00:56:35.743Z,85.24
2023-04-04T00:57:35.751Z,84.71
2023-04-04T00:58:35.725Z,85.24
2023-04-04T00:59:35.730Z,87.64
2023-04-04T01:00:35.708Z,87.96
2023-04-04T01:01:35.850Z,88.23
2023-04-04T01:02:35.717Z,86.38
2023-04-04T01:03:35.688Z,85.02
2023-04-04T01:04:35.790Z,86.49
2023-04-04T01:05:35.688Z,85.44
2023-04-04T01:06:35.641Z,84.71
2023-04-04T01:07:37.135Z,85.34
2023-04-04T01:08:35.621Z,85.65
2023-04-04T01:09:35.615Z,85.24
2023-04-04T01:10:35.647Z,86.91
2023-04-04T01:11:35.607Z,89.17
2023-04-04T01:12:35.611Z,88.54
2023-04-04T01:13:35.650Z,87.81
2023-04-04T01:14:35.558Z,86.35
2023-04-04T01:15:35.563Z,86.87
2023-04-04T01:16:35.590Z,85.30
2023-04-04T01:17:35.577Z,84.36
2023-04-04T01:18:35.547Z,83.62
2023-04-04T01:19:35.521Z,83.87
2023-04-04T01:20:35.500Z,84.71
2023-04-04T01:21:35.504Z,84.81
2023-04-04T01:22:35.445Z,84.39
2023-04-04T01:23:35.477Z,84.54
2023-04-04T01:24:35.456Z,85.17
2023-04-04T01:25:35.475Z,84.22
2023-04-04T01:26:35.460Z,84.44
2023-04-04T01:27:35.440Z,84.85
2023-04-04T01:28:35.414Z,85.27
2023-04-04T01:29:35.454Z,84.68
2023-04-04T01:30:35.444Z,84.58
2023-04-04T01:31:35.401Z,85.00
2023-04-04T01:32:35.425Z,85.21
2023-04-04T01:33:35.378Z,85.56
2023-04-04T01:34:35.355Z,85.66
2023-04-04T01:35:35.386Z,85.56
2023-04-04T01:36:35.335Z,85.88
2023-04-04T01:37:35.341Z,86.40
2023-04-04T01:38:35.347Z,87.03
2023-04-04T01:39:35.335Z,88.39
2023-04-04T01:40:35.290Z,88.92
2023-04-04T01:41:35.324Z,88.60
2023-04-04T01:42:35.290Z,87.97
2023-04-04T01:43:35.299Z,87.76
2023-04-04T01:44:35.262Z,87.66
2023-04-04T01:45:35.252Z,88.92
2023-04-04T01:46:35.270Z,88.49
2023-04-04T01:47:35.271Z,88.18
2023-04-04T01:48:35.249Z,87.76
2023-04-04T01:49:35.226Z,87.91
2023-04-04T01:50:35.200Z,89.12
2023-04-04T01:51:35.209Z,89.44
2023-04-04T01:52:35.176Z,89.02
2023-04-04T01:53:35.177Z,88.32
2023-04-04T01:54:35.188Z,88.01
2023-04-04T01:55:35.160Z,87.91
2023-04-04T01:56:35.146Z,87.70
2023-04-04T01:57:35.127Z,87.59
2023-04-04T01:58:35.142Z,87.07
2023-04-04T01:59:35.113Z,87.28
2023-04-04T02:00:35.093Z,87.91
2023-04-04T02:01:35.124Z,87.52
2023-04-04T02:02:35.180Z,87.00
2023-04-04T02:03:35.098Z,87.52
2023-04-04T02:04:35.060Z,88.57
2023-04-04T02:05:35.061Z,89.31
2023-04-04T02:06:35.040Z,89.10
2023-04-04T02:07:35.044Z,88.37
2023-04-04T02:08:35.030Z,88.05
2023-04-04T02:09:35.029Z,87.42
2023-04-04T02:10:35.025Z,88.05
2023-04-04T02:11:35.016Z,87.95
2023-04-04T02:12:34.978Z,87.63
2023-04-04T02:13:34.973Z,87.84
2023-04-04T02:14:35.009Z,88.37
2023-04-04T02:15:34.969Z,89.00
2023-04-04T02:16:34.950Z,89.31
2023-04-04T02:17:34.968Z,89.14
2023-04-04T02:18:34.920Z,89.31
2023-04-04T02:19:34.964Z,89.77
2023-04-04T02:20:34.950Z,89.77
2023-04-04T02:21:34.893Z,89.77
2023-04-04T02:22:34.876Z,90.19
2023-04-04T02:23:34.886Z,90.19
2023-04-04T02:24:34.863Z,89.77
2023-04-04T02:25:34.880Z,89.56
2023-04-04T02:26:34.867Z,89.25
2023-04-04T02:27:34.839Z,89.35
2023-04-04T02:28:34.817Z,90.30
2023-04-04T02:29:34.816Z,90.30
2023-04-04T02:30:34.819Z,89.98
2023-04-04T02:31:35.309Z,89.98
2023-04-04T02:32:34.789Z,90.09
2023-04-04T02:33:34.782Z,89.98
2023-04-04T02:34:34.771Z,89.98
2023-04-04T02:35:34.806Z,90.30
2023-04-04T02:36:34.751Z,89.98
2023-04-04T02:37:34.763Z,89.77
2023-04-04T02:38:34.747Z,90.40
2023-04-04T02:39:34.725Z,90.72
2023-04-04T02:40:34.722Z,90.92
2023-04-04T02:41:34.701Z,90.82
2023-04-04T02:42:34.681Z,90.19
2023-04-04T02:43:34.671Z,89.77
2023-04-04T02:44:34.654Z,89.35
2023-04-04T02:45:34.682Z,89.14
2023-04-04T02:46:34.694Z,89.14
2023-04-04T02:47:34.662Z,89.25
2023-04-04T02:48:34.630Z,89.25
2023-04-04T02:49:34.618Z,89.14
2023-04-04T02:50:34.601Z,89.14
2023-04-04T02:51:34.630Z,89.14
2023-04-04T02:52:34.591Z,88.93
2023-04-04T02:53:34.568Z,89.46
2023-04-04T02:54:34.571Z,89.67
2023-04-04T02:55:34.566Z,89.35
2023-04-04T02:56:34.527Z,88.93
2023-04-04T02:57:34.571Z,88.62
2023-04-04T02:58:34.521Z,89.14
2023-04-04T02:59:34.516Z,91.14
2023-04-04T03:00:34.504Z,90.92
2023-04-04T03:01:34.603Z,90.19
2023-04-04T03:02:34.797Z,89.98
2023-04-04T03:03:34.655Z,89.87
2023-04-04T03:04:34.490Z,89.77
2023-04-04T03:05:34.467Z,89.92
2023-04-04T03:06:34.445Z,89.71
2023-04-04T03:07:34.454Z,89.50
2023-04-04T03:08:34.441Z,89.50
2023-04-04T03:09:34.424Z,89.29
2023-04-04T03:10:34.428Z,89.50
2023-04-04T03:11:34.403Z,89.50
2023-04-04T03:12:34.374Z,89.60
2023-04-04T03:13:34.390Z,89.81
2023-04-04T03:14:34.365Z,89.71
2023-04-04T03:15:34.390Z,89.71
2023-04-04T03:16:34.371Z,90.23
2023-04-04T03:17:34.367Z,90.66
2023-04-04T03:18:34.324Z,90.97
2023-04-04T03:19:40.930Z,90.97
2023-04-04T03:20:34.301Z,90.97
2023-04-04T03:21:34.305Z,91.11
2023-04-04T03:22:34.283Z,91.33
2023-04-04T03:23:34.271Z,91.60
2023-04-04T03:24:34.270Z,91.60
2023-04-04T03:25:34.282Z,92.12
2023-04-04T03:26:34.228Z,92.44
2023-04-04T03:27:34.234Z,92.23
2023-04-04T03:28:34.222Z,91.49
2023-04-04T03:29:34.205Z,90.66
2023-04-04T03:30:34.230Z,90.61
2023-04-04T03:31:34.329Z,90.61
2023-04-04T03:32:34.207Z,90.19
2023-04-04T03:33:34.171Z,89.98
2023-04-04T03:34:34.173Z,89.46
2023-04-04T03:35:34.189Z,89.14
2023-04-04T03:36:34.150Z,89.14
2023-04-04T03:37:34.133Z,89.46
2023-04-04T03:38:34.141Z,89.94
2023-04-04T03:39:34.106Z,89.52
2023-04-04T03:40:34.109Z,88.79
2023-04-04T03:41:34.101Z,89.10
2023-04-04T03:42:34.120Z,88.68
2023-04-04T03:43:34.091Z,89.10
2023-04-04T03:44:34.069Z,88.16
2023-04-04T03:45:34.048Z,87.46
2023-04-04T03:46:35.459Z,87.46
2023-04-04T03:47:34.061Z,87.99
2023-04-04T03:48:34.036Z,88.20
2023-04-04T03:49:34.011Z,87.99
2023-04-04T03:50:34.003Z,88.24
2023-04-04T03:51:34.000Z,88.55
2023-04-04T03:52:34.009Z,88.87
2023-04-04T03:53:33.967Z,89.29
2023-04-04T03:54:33.977Z,89.50
2023-04-04T03:55:33.959Z,89.60
2023-04-04T03:56:33.957Z,89.71
2023-04-04T03:57:33.929Z,89.75
2023-04-04T03:58:33.919Z,89.96
2023-04-04T03:59:33.908Z,90.06
2023-04-04T04:00:33.896Z,90.17
2023-04-04T04:01:33.901Z,90.38
2023-04-04T04:02:33.952Z,90.48
2023-04-04T04:03:34.060Z,90.48
2023-04-04T04:04:33.895Z,90.27
2023-04-04T04:05:33.846Z,90.11
2023-04-04T04:06:33.844Z,90.21
2023-04-04T04:07:33.837Z,90.80
2023-04-04T04:08:33.818Z,91.43
2023-04-04T04:09:33.803Z,93.32
2023-04-04T04:10:33.825Z,93.53
2023-04-04T04:11:33.828Z,92.90
2023-04-04T04:12:33.819Z,92.38
2023-04-04T04:13:33.804Z,91.74
2023-04-04T04:14:33.794Z,90.91
2023-04-04T04:15:33.749Z,91.85
2023-04-04T04:16:33.795Z,91.43
2023-04-04T04:17:33.748Z,91.22
2023-04-04T04:18:33.797Z,91.26
2023-04-04T04:19:33.715Z,91.36
2023-04-04T04:20:33.707Z,91.16
2023-04-04T04:21:33.690Z,91.05
2023-04-04T04:22:33.703Z,90.73
2023-04-04T04:23:33.695Z,90.73
2023-04-04T04:24:33.674Z,90.73
2023-04-04T04:25:33.651Z,91.05
2023-04-04T04:26:33.659Z,91.58
2023-04-04T04:27:33.626Z,92.21
2023-04-04T04:28:34.525Z,92.52
2023-04-04T04:29:33.570Z,92.67
2023-04-04T04:30:33.573Z,92.77
2023-04-04T04:31:33.586Z,92.67
2023-04-04T04:32:33.564Z,92.57
2023-04-04T04:33:40.062Z,92.35
2023-04-04T04:34:33.530Z,92.14
2023-04-04T04:35:33.545Z,91.93
2023-04-04T04:36:33.526Z,92.14
2023-04-04T04:37:33.485Z,92.35
2023-04-04T04:38:33.497Z,92.04
2023-04-04T04:39:33.456Z,91.83
2023-04-04T04:40:33.459Z,91.51
2023-04-04T04:41:33.469Z,91.20
2023-04-04T04:42:33.441Z,90.99
2023-04-04T04:43:33.405Z,90.99
2023-04-04T04:44:33.464Z,90.99
2023-04-04T04:45:33.393Z,91.20
2023-04-04T04:46:33.462Z,91.51
2023-04-04T04:47:33.427Z,91.72
2023-04-04T04:48:33.381Z,92.25
2023-04-04T04:49:33.372Z,93.30
2023-04-04T04:50:33.365Z,93.19
2023-04-04T04:51:33.330Z,92.99
2023-04-04T04:52:33.356Z,92.77
2023-04-04T04:53:33.314Z,92.67
2023-04-04T04:54:33.322Z,92.77
2023-04-04T04:55:33.329Z,92.46
2023-04-04T04:56:33.308Z,92.25
2023-04-04T04:57:33.296Z,92.14
2023-04-04T04:58:33.279Z,92.04
2023-04-04T04:59:33.280Z,91.83
2023-04-04T05:00:33.272Z,91.97
2023-04-04T05:01:33.370Z,92.19
2023-04-04T05:02:33.369Z,92.40
2023-04-04T05:03:33.250Z,92.99
2023-04-04T05:04:33.223Z,93.99
2023-04-04T05:05:33.214Z,93.79
2023-04-04T05:06:33.218Z,93.47
2023-04-04T05:07:33.181Z,93.15
2023-04-04T05:08:33.220Z,92.73
2023-04-04T05:09:33.184Z,92.42
2023-04-04T05:10:33.173Z,92.21
2023-04-04T05:11:33.171Z,92.14
2023-04-04T05:12:33.140Z,92.35
2023-04-04T05:13:33.140Z,92.67
2023-04-04T05:14:33.117Z,92.88
2023-04-04T05:15:33.101Z,92.99
2023-04-04T05:16:33.126Z,93.41
2023-04-04T05:17:33.113Z,93.19
2023-04-04T05:18:33.094Z,92.77
2023-04-04T05:19:33.082Z,93.68
2023-04-04T05:20:33.049Z,93.68
2023-04-04T05:21:33.047Z,93.05
2023-04-04T05:22:33.038Z,92.42
2023-04-04T05:23:33.031Z,92.21
2023-04-04T05:24:33.065Z,92.21
2023-04-04T05:25:33.010Z,92.00
2023-04-04T05:26:33.016Z,92.10
2023-04-04T05:27:32.979Z,92.21
2023-04-04T05:28:33.020Z,92.42
2023-04-04T05:29:32.975Z,92.69
2023-04-04T05:30:32.965Z,92.58
2023-04-04T05:31:32.955Z,92.42
2023-04-04T05:32:32.964Z,92.31
2023-04-04T05:33:32.928Z,92.31
2023-04-04T05:34:32.925Z,92.21
2023-04-04T05:35:32.920Z,92.00
2023-04-04T05:36:33.021Z,92.00
2023-04-04T05:37:34.383Z,92.21
2023-04-04T05:38:32.893Z,92.52
2023-04-04T05:39:32.872Z,92.63
2023-04-04T05:40:32.865Z,92.63
2023-04-04T05:41:32.868Z,92.52
2023-04-04T05:42:32.847Z,92.21
2023-04-04T05:43:32.810Z,91.89
2023-04-04T05:44:32.837Z,92.27
2023-04-04T05:45:32.824Z,91.85
2023-04-04T05:46:39.409Z,91.74
2023-04-04T05:47:32.821Z,91.64
2023-04-04T05:48:32.784Z,91.85
2023-04-04T05:49:32.752Z,91.96
2023-04-04T05:50:32.763Z,92.06
2023-04-04T05:51:32.758Z,92.06
2023-04-04T05:52:32.750Z,92.06
2023-04-04T05:53:32.744Z,91.96
2023-04-04T05:54:32.735Z,91.85
2023-04-04T05:55:32.734Z,91.60
2023-04-04T05:56:32.705Z,91.71
2023-04-04T05:57:32.677Z,91.81
2023-04-04T05:58:32.712Z,92.02
2023-04-04T05:59:32.714Z,92.33
2023-04-04T06:00:32.667Z,92.12
2023-04-04T06:01:32.644Z,92.33
2023-04-04T06:02:32.686Z,92.19
2023-04-04T06:03:32.904Z,92.61
2023-04-04T06:04:32.622Z,93.13
2023-04-04T06:05:32.681Z,92.71
2023-04-04T06:06:32.608Z,92.19
2023-04-04T06:07:32.577Z,92.08
2023-04-04T06:08:40.149Z,91.87
2023-04-04T06:09:32.571Z,91.87
2023-04-04T06:10:32.561Z,91.87
2023-04-04T06:11:32.553Z,91.87
2023-04-04T06:12:32.542Z,92.08
2023-04-04T06:13:32.594Z,92.29
2023-04-04T06:14:32.528Z,92.50
2023-04-04T06:15:32.518Z,92.61
2023-04-04T06:16:32.606Z,92.40
2023-04-04T06:17:32.538Z,92.50
2023-04-04T06:18:32.481Z,92.61
2023-04-04T06:19:32.473Z,92.57
2023-04-04T06:20:32.473Z,92.57
2023-04-04T06:21:32.432Z,92.67
2023-04-04T06:22:32.454Z,92.77
2023-04-04T06:23:32.442Z,92.77
2023-04-04T06:24:32.439Z,92.57
2023-04-04T06:25:32.411Z,92.35
2023-04-04T06:26:32.597Z,92.25
2023-04-04T06:27:32.439Z,92.21
2023-04-04T06:28:32.652Z,92.21
2023-04-04T06:29:32.379Z,92.10
2023-04-04T06:30:32.376Z,92.00
2023-04-04T06:31:32.367Z,91.96
2023-04-04T06:32:32.443Z,92.16
2023-04-04T06:33:32.461Z,91.75
2023-04-04T06:34:32.334Z,91.33
2023-04-04T06:35:32.336Z,91.33
2023-04-04T06:36:32.332Z,91.60
2023-04-04T06:37:32.284Z,91.50
2023-04-04T06:38:32.330Z,90.83
2023-04-04T06:39:32.279Z,90.72
2023-04-04T06:40:32.260Z,90.41
2023-04-04T06:41:32.230Z,89.73
2023-04-04T06:42:32.265Z,88.79
2023-04-04T06:43:32.226Z,88.48
2023-04-04T06:44:32.216Z,87.71
2023-04-04T06:45:32.242Z,85.93
2023-04-04T06:46:32.239Z,86.52
2023-04-04T06:47:32.240Z,87.04
2023-04-04T06:48:32.169Z,86.06
2023-04-04T06:49:32.150Z,85.50
2023-04-04T06:50:32.180Z,86.75
2023-04-04T06:51:32.141Z,88.45
2023-04-04T06:52:32.156Z,88.03
2023-04-04T06:53:32.133Z,84.27
2023-04-04T06:54:32.135Z,85.00
2023-04-04T06:55:32.120Z,85.17
2023-04-04T06:56:32.179Z,85.03
2023-04-04T06:57:32.091Z,80.75
2023-04-04T06:58:32.087Z,82.63
2023-04-04T06:59:32.208Z,81.27
2023-04-04T07:00:32.120Z,81.55
2023-04-04T07:01:32.145Z,78.11
2023-04-04T07:02:32.136Z,78.00
2023-04-04T07:03:32.035Z,79.67
2023-04-04T07:04:32.095Z,75.88
2023-04-04T07:05:32.053Z,76.30
2023-04-04T07:06:32.207Z,77.86
2023-04-04T07:07:32.217Z,76.09
2023-04-04T07:08:35.908Z,76.09
2023-04-04T07:09:32.020Z,75.05
2023-04-04T07:10:31.966Z,77.45
2023-04-04T07:11:32.093Z,74.52
2023-04-04T07:12:31.991Z,73.35
2023-04-04T07:13:31.971Z,78.56
2023-04-04T07:14:31.936Z,76.06
2023-04-04T07:15:31.906Z,77.58
2023-04-04T07:16:31.996Z,77.79
2023-04-04T07:17:31.899Z,74.15
2023-04-04T07:18:31.896Z,75.81
2023-04-04T07:19:31.964Z,75.78
2023-04-04T07:20:31.884Z,75.78
2023-04-04T07:21:31.831Z,76.30
2023-04-04T07:22:32.612Z,78.59
2023-04-04T07:23:31.843Z,78.28
2023-04-04T07:24:31.821Z,75.95
2023-04-04T07:25:31.801Z,75.43
2023-04-04T07:26:31.912Z,73.07
2023-04-04T07:27:31.926Z,78.45
2023-04-04T07:28:31.792Z,80.43
2023-04-04T07:29:31.755Z,78.83
2023-04-04T07:30:31.764Z,78.83
2023-04-04T07:31:31.798Z,78.48
2023-04-04T07:32:31.906Z,78.17
2023-04-04T07:33:31.750Z,79.69
2023-04-04T07:34:31.737Z,78.13
2023-04-04T07:35:31.723Z,77.09
2023-04-04T07:36:31.700Z,76.47
2023-04-04T07:37:31.683Z,76.16
2023-04-04T07:38:31.770Z,74.88
2023-04-04T07:39:31.673Z,75.40
2023-04-04T07:40:31.659Z,73.84
2023-04-04T07:41:31.651Z,73.63
2023-04-04T07:42:31.634Z,73.22
2023-04-04T07:43:31.629Z,77.68
2023-04-04T07:44:31.614Z,75.92
2023-04-04T07:45:31.612Z,74.46
2023-04-04T07:46:31.651Z,75.05
2023-04-04T07:47:31.604Z,74.95
2023-04-04T07:48:31.585Z,72.87
2023-04-04T07:49:31.565Z,75.26
2023-04-04T07:50:31.554Z,73.18
2023-04-04T07:51:31.540Z,73.91
2023-04-04T07:52:31.524Z,72.45
2023-04-04T07:53:31.569Z,74.53
2023-04-04T07:54:31.517Z,76.57
2023-04-04T07:55:31.707Z,74.71
2023-04-04T07:56:40.517Z,75.23
2023-04-04T07:57:31.477Z,71.49
2023-04-04T07:58:31.502Z,70.83
2023-04-04T07:59:31.747Z,70.45
2023-04-04T08:00:31.472Z,72.91
2023-04-04T08:01:31.508Z,72.08
2023-04-04T08:02:31.511Z,72.70
2023-04-04T08:03:31.506Z,70.73
2023-04-04T08:04:31.461Z,74.77
2023-04-04T08:05:31.402Z,73.32
2023-04-04T08:06:31.390Z,72.36
2023-04-04T08:07:31.393Z,72.77
2023-04-04T08:08:31.411Z,74.84
2023-04-04T08:09:31.445Z,75.74
2023-04-04T08:10:31.382Z,72.42
2023-04-04T08:13:53.366Z,70.32
2023-04-04T08:17:12.231Z,70.63
2023-04-04T08:18:13.115Z,68.87
2023-04-04T08:19:13.101Z,71.88
2023-04-04T08:20:13.087Z,73.39
2023-04-04T08:21:13.035Z,71.33
2023-04-04T08:22:12.972Z,70.39
2023-04-04T08:23:13.140Z,67.08
2023-04-04T08:24:12.970Z,71.50
2023-04-04T08:25:12.946Z,70.47
2023-04-04T08:26:12.914Z,68.80
2023-04-04T08:27:12.921Z,67.67
2023-04-04T08:28:12.924Z,61.98
2023-04-04T08:29:12.961Z,65.29
2023-04-04T08:30:12.896Z,69.12
2023-04-04T08:31:12.904Z,69.22
2023-04-04T08:32:12.872Z,67.77
2023-04-04T08:33:12.904Z,68.70
2023-04-04T08:34:12.865Z,68.49
2023-04-04T08:35:12.892Z,69.29
2023-04-04T08:36:12.809Z,67.43
2023-04-04T08:37:12.841Z,66.09
2023-04-04T08:38:12.798Z,59.80
2023-04-04T08:39:13.301Z,64.46
2023-04-04T08:40:12.985Z,64.67
2023-04-04T08:41:13.090Z,66.32
2023-04-04T08:42:12.761Z,69.50
2023-04-04T08:43:12.732Z,67.74
2023-04-04T08:44:12.763Z,63.92
2023-04-04T08:45:12.764Z,66.91
2023-04-04T08:46:12.805Z,68.36
2023-04-04T08:47:12.757Z,65.16
2023-04-04T08:48:12.709Z,62.77
2023-04-04T08:49:12.696Z,62.98
2023-04-04T08:50:12.803Z,62.88
2023-04-04T08:51:12.868Z,67.64
2023-04-04T08:52:12.712Z,59.95
2023-04-04T08:53:12.683Z,60.47
2023-04-04T08:54:12.662Z,65.54
2023-04-04T08:55:12.712Z,61.20
2023-04-04T08:56:12.896Z,59.34
2023-04-04T08:57:12.630Z,53.65
2023-04-04T08:58:12.622Z,51.68
2023-04-04T08:59:12.719Z,51.58
2023-04-04T09:00:12.693Z,56.65
2023-04-04T09:01:12.663Z,53.86
2023-04-04T09:02:12.641Z,55.10
2023-04-04T09:03:12.611Z,62.13
2023-04-04T09:04:12.611Z,57.68
2023-04-04T09:05:12.618Z,58.38
2023-04-04T09:06:12.562Z,53.11
2023-04-04T09:07:12.513Z,49.93
2023-04-04T09:08:12.605Z,52.62
2023-04-04T09:09:12.513Z,54.55
2023-04-04T09:10:12.538Z,52.41
2023-04-04T09:11:12.475Z,49.52
2023-04-04T09:12:12.472Z,52.93
2023-04-04T09:13:16.000Z,52.93
2023-04-04T09:14:12.460Z,53.44
2023-04-04T09:15:12.455Z,54.38
2023-04-04T09:16:12.460Z,50.45
2023-04-04T09:17:12.413Z,53.55
2023-04-04T09:18:12.445Z,53.86
2023-04-04T09:19:12.409Z,53.23
2023-04-04T09:20:12.400Z,50.86
2023-04-04T09:21:12.402Z,52.83
2023-04-04T09:22:12.380Z,56.13
2023-04-04T09:23:12.348Z,57.04
2023-04-04T09:24:12.400Z,60.34
2023-04-04T09:25:12.391Z,61.76
2023-04-04T09:26:12.357Z,60.42
2023-04-04T09:27:12.309Z,55.87
2023-04-04T09:28:12.307Z,54.02
2023-04-04T09:29:12.326Z,52.57
2023-04-04T09:30:12.297Z,52.36
2023-04-04T09:31:12.282Z,54.82
2023-04-04T09:32:12.372Z,48.13
2023-04-04T09:33:12.255Z,50.21
2023-04-04T09:34:12.267Z,49.88
2023-04-04T09:35:12.218Z,50.29
2023-04-04T09:36:12.353Z,52.36
2023-04-04T09:37:12.217Z,52.98
2023-04-04T09:38:12.228Z,50.71
2023-04-04T09:39:12.183Z,50.01
2023-04-04T09:40:12.218Z,48.27
2023-04-04T09:41:12.179Z,55.72
2023-04-04T09:42:12.180Z,56.93
2023-04-04T09:43:12.160Z,49.70
2023-04-04T09:44:12.162Z,50.11
2023-04-04T09:45:16.948Z,52.08
2023-04-04T09:46:12.195Z,49.39
2023-04-04T09:47:15.624Z,49.60
2023-04-04T09:48:12.151Z,47.84
2023-04-04T09:49:13.433Z,48.25
2023-04-04T09:50:12.115Z,50.52
2023-04-04T09:51:12.063Z,51.12
2023-04-04T09:52:12.089Z,48.54
2023-04-04T09:53:12.075Z,54.71
2023-04-04T09:54:18.646Z,57.40
2023-04-04T09:55:12.033Z,51.70
2023-04-04T09:56:12.037Z,49.01
2023-04-04T09:57:12.029Z,51.90
2023-04-04T09:58:12.001Z,49.53
2023-04-04T09:59:12.013Z,54.14
2023-04-04T10:00:11.994Z,50.74
2023-04-04T10:01:12.010Z,54.56
2023-04-04T10:02:11.960Z,54.53
2023-04-04T10:03:11.960Z,53.81
2023-04-04T10:04:11.977Z,48.76
2023-04-04T10:05:11.928Z,48.16
2023-04-04T10:06:11.949Z,46.43
2023-04-04T10:07:12.156Z,48.08
2023-04-04T10:08:11.900Z,49.43
2023-04-04T10:09:11.902Z,48.08
2023-04-04T10:10:11.871Z,49.53
2023-04-04T10:11:12.727Z,48.08
2023-04-04T10:12:11.888Z,48.08
2023-04-04T10:13:11.854Z,52.93
2023-04-04T10:14:11.848Z,54.58
2023-04-04T10:15:11.828Z,57.86
2023-04-04T10:16:12.305Z,54.97
2023-04-04T10:17:11.810Z,48.68
2023-04-04T10:18:11.810Z,45.79
2023-04-04T10:19:11.792Z,47.36
2023-04-04T10:20:11.774Z,48.29
2023-04-04T10:21:15.863Z,46.43
2023-04-04T10:22:11.759Z,49.84
2023-04-04T10:23:11.738Z,58.09
2023-04-04T10:24:11.764Z,54.14
2023-04-04T10:25:11.725Z,54.46
2023-04-04T10:26:11.747Z,53.19
2023-04-04T10:27:11.705Z,52.47
2023-04-04T10:28:11.707Z,52.96
2023-04-04T10:29:11.880Z,50.80
2023-04-04T10:30:11.761Z,55.21
2023-04-04T10:31:11.746Z,50.96
2023-04-04T10:32:11.754Z,54.87
2023-04-04T10:33:11.681Z,53.33
2023-04-04T10:34:11.637Z,54.64
2023-04-04T10:35:11.620Z,52.17
2023-04-04T10:36:11.667Z,51.34
2023-04-04T10:37:13.077Z,55.43
2023-04-04T10:38:11.629Z,53.58
2023-04-04T10:39:11.588Z,51.04
2023-04-04T10:40:11.603Z,46.63
2023-04-04T10:41:11.628Z,48.07
2023-04-04T10:42:11.566Z,46.04
2023-04-04T10:43:11.569Z,45.95
2023-04-04T10:44:11.570Z,47.91
2023-04-04T10:45:20.556Z,51.10
2023-04-04T10:46:11.718Z,49.87
2023-04-04T10:49:08.183Z,45.54
2023-04-04T10:50:09.214Z,46.06
2023-04-04T10:51:09.144Z,46.80
2023-04-04T10:52:09.137Z,45.25
2023-04-04T10:53:09.135Z,45.77
2023-04-04T10:54:09.110Z,51.23
2023-04-04T10:55:09.108Z,49.77
2023-04-04T10:56:09.119Z,46.37
2023-04-04T10:57:09.083Z,49.05
2023-04-04T10:58:09.090Z,48.61
2023-04-04T10:59:09.078Z,44.41
2023-04-04T11:00:09.068Z,44.82
2023-04-04T11:01:09.054Z,45.56
2023-04-04T11:02:09.043Z,45.77
2023-04-04T11:03:09.135Z,45.25
2023-04-04T11:04:09.081Z,50.41
2023-04-04T11:05:09.033Z,54.10
2023-04-04T11:06:08.992Z,47.60
2023-04-04T11:07:09.006Z,49.23
2023-04-04T11:08:09.656Z,46.55
2023-04-04T11:09:08.944Z,43.98
2023-04-04T11:10:08.966Z,42.97
2023-04-04T11:11:21.869Z,45.05
2023-04-04T11:12:08.936Z,46.19
2023-04-04T11:13:13.167Z,52.96
2023-04-04T11:14:10.844Z,49.87
2023-04-04T11:15:08.946Z,49.02
2023-04-04T11:16:08.970Z,48.07
2023-04-04T11:17:09.016Z,48.57
2023-04-04T11:18:22.271Z,43.42
2023-04-04T11:19:09.007Z,46.82
2023-04-04T11:20:08.970Z,48.07
2023-04-04T11:21:09.063Z,43.85
2023-04-04T11:22:08.895Z,43.65
2023-04-04T11:23:08.930Z,47.66
2023-04-04T11:24:08.825Z,44.18
2023-04-04T11:25:08.916Z,47.89
2023-04-04T11:26:08.805Z,46.04
2023-04-04T11:27:08.827Z,49.93
2023-04-04T11:28:08.834Z,49.41
2023-04-04T11:29:08.973Z,47.87
2023-04-04T11:30:08.728Z,43.44
2023-04-04T11:31:08.776Z,42.21
2023-04-04T11:32:08.781Z,44.65
2023-04-04T11:33:08.845Z,43.75
2023-04-04T11:34:08.762Z,44.26
2023-04-04T11:35:08.738Z,48.26
2023-04-04T11:36:08.971Z,44.45
2023-04-04T11:37:08.898Z,46.61
2023-04-04T11:38:08.774Z,46.73
2023-04-04T11:39:08.710Z,44.47
2023-04-04T11:40:08.696Z,44.89
2023-04-04T11:41:08.658Z,47.25
2023-04-04T11:42:08.632Z,46.53
2023-04-04T11:43:08.617Z,48.69
2023-04-04T11:44:09.406Z,47.74
2023-04-04T11:45:08.648Z,45.58
2023-04-04T11:46:08.649Z,52.56
2023-04-04T11:47:08.592Z,49.08
2023-04-04T11:48:08.580Z,44.45
2023-04-04T11:49:08.521Z,50.96
2023-04-04T11:50:08.592Z,48.28
2023-04-04T11:51:08.539Z,44.37
2023-04-04T11:52:08.501Z,51.47
2023-04-04T11:53:08.475Z,53.53
2023-04-04T11:54:08.507Z,56.29
2023-04-04T11:55:08.518Z,51.84
2023-04-04T11:56:08.461Z,50.70
2023-04-04T11:57:08.481Z,47.20
2023-04-04T11:58:10.616Z,48.85
2023-04-04T11:59:11.823Z,43.63
2023-04-04T12:00:08.522Z,46.12
2023-04-04T12:01:08.411Z,46.01
2023-04-04T12:02:08.466Z,49.52
2023-04-04T12:03:08.461Z,48.16
2023-04-04T12:04:08.367Z,43.21
2023-04-04T12:05:08.458Z,51.14
2023-04-04T12:06:08.438Z,45.17
2023-04-04T12:07:08.330Z,45.04
2023-04-04T12:08:08.360Z,41.77
2023-04-04T12:09:08.323Z,42.60
2023-04-04T12:10:08.310Z,42.91
2023-04-04T12:11:08.309Z,42.72
2023-04-04T12:12:08.442Z,42.54
2023-04-04T12:13:08.293Z,49.52
2023-04-04T12:14:08.256Z,45.50
2023-04-04T12:15:17.824Z,45.50
2023-04-04T12:16:08.313Z,45.07
2023-04-04T12:17:08.253Z,43.93
2023-04-04T12:18:08.290Z,46.10
2023-04-04T12:19:08.272Z,46.69
2023-04-04T12:20:08.186Z,41.65
2023-04-04T12:21:08.180Z,52.25
2023-04-04T12:22:08.397Z,50.78
2023-04-04T12:23:08.149Z,45.34
2023-04-04T12:24:08.156Z,44.31
2023-04-04T12:25:08.162Z,42.89
2023-04-04T12:26:08.106Z,49.88
2023-04-04T12:27:08.184Z,43.51
2023-04-04T12:28:08.130Z,43.12
2023-04-04T12:29:08.089Z,45.17
2023-04-04T12:30:08.093Z,46.10
2023-04-04T12:31:08.160Z,48.96
2023-04-04T12:32:08.151Z,49.68
2023-04-04T12:33:08.081Z,44.64
2023-04-04T12:34:08.041Z,44.33
2023-04-04T12:35:08.044Z,48.03
2023-04-04T12:36:08.608Z,44.65
2023-04-04T12:37:08.014Z,43.63
2023-04-04T12:38:08.033Z,45.28
2023-04-04T12:39:07.995Z,49.26
2023-04-04T12:40:07.996Z,44.33
2023-04-04T12:41:07.980Z,45.23
2023-04-04T12:42:07.959Z,48.21
2023-04-04T12:43:07.989Z,55.49
2023-04-04T12:44:07.985Z,52.92
2023-04-04T12:45:07.977Z,46.24
2023-04-04T12:46:07.920Z,42.66
2023-04-04T12:47:07.976Z,40.52
2023-04-04T12:48:07.975Z,40.01
2023-04-04T12:49:07.882Z,45.67
2023-04-04T12:50:07.907Z,43.30
2023-04-04T12:51:07.851Z,42.79
2023-04-04T12:52:07.854Z,43.81
2023-04-04T12:53:23.983Z,42.17
2023-04-04T12:54:07.845Z,42.47
2023-04-04T12:55:08.667Z,42.68
2023-04-04T12:56:07.826Z,43.90
2023-04-04T12:57:07.808Z,40.81
2023-04-04T12:58:07.777Z,39.99
2023-04-04T12:59:07.819Z,40.50